sensor_id;sensor_type;location;lat;lon;timestamp;pressure;altitude;pressure_sealevel;temperature;humidity
47366;BME280;33105;47.964;7.982;2023-04-10T00:02:53;97175.56;;;5.23;65.67
47366;BME280;33105;47.964;7.982;2023-04-10T00:05:54;97172.22;;;5.27;65.59
47366;BME280;33105;47.964;7.982;2023-04-10T00:08:56;97181.47;;;5.13;65.88
47366;BME280;33105;47.964;7.982;2023-04-10T00:11:58;97171.09;;;5.03;66.06
47366;BME280;33105;47.964;7.982;2023-04-10T00:14:59;97179.09;;;4.92;66.51
47366;BME280;33105;47.964;7.982;2023-04-10T00:18:00;97168.25;;;4.92;66.77
47366;BME280;33105;47.964;7.982;2023-04-10T00:21:02;97174.84;;;5.02;65.76
47366;BME280;33105;47.964;7.982;2023-04-10T00:24:03;97175.88;;;4.63;66.55
47366;BME280;33105;47.964;7.982;2023-04-10T00:27:05;97175.88;;;4.63;66.60
47366;BME280;33105;47.964;7.982;2023-04-10T00:30:07;97180.41;;;4.76;66.16
47366;BME280;33105;47.964;7.982;2023-04-10T00:33:08;97170.81;;;4.80;66.04
47366;BME280;33105;47.964;7.982;2023-04-10T00:36:09;97168.38;;;4.65;67.69
47366;BME280;33105;47.964;7.982;2023-04-10T00:39:11;97169.25;;;4.46;66.84
47366;BME280;33105;47.964;7.982;2023-04-10T00:42:12;97168.28;;;4.34;67.60
47366;BME280;33105;47.964;7.982;2023-04-10T00:45:14;97162.88;;;4.34;68.25
47366;BME280;33105;47.964;7.982;2023-04-10T00:48:15;97155.31;;;4.56;67.05
47366;BME280;33105;47.964;7.982;2023-04-10T00:51:18;97156.09;;;4.69;66.69
47366;BME280;33105;47.964;7.982;2023-04-10T00:54:21;97152.94;;;4.72;66.28
47366;BME280;33105;47.964;7.982;2023-04-10T00:57:23;97150.50;;;4.58;67.48
47366;BME280;33105;47.964;7.982;2023-04-10T01:00:25;97143.94;;;4.40;67.10
47366;BME280;33105;47.964;7.982;2023-04-10T01:03:26;97148.09;;;4.36;67.64
47366;BME280;33105;47.964;7.982;2023-04-10T01:13:52;97146.84;;;4.39;68.27
47366;BME280;33105;47.964;7.982;2023-04-10T01:17:20;97146.03;;;4.76;67.06
47366;BME280;33105;47.964;7.982;2023-04-10T01:20:28;97140.91;;;4.68;66.64
47366;BME280;33105;47.964;7.982;2023-04-10T01:27:11;97133.06;;;4.92;65.39
47366;BME280;33105;47.964;7.982;2023-04-10T01:30:20;97145.41;;;4.81;66.54
47366;BME280;33105;47.964;7.982;2023-04-10T01:33:36;97146.41;;;4.87;66.40
47366;BME280;33105;47.964;7.982;2023-04-10T01:36:50;97141.34;;;4.97;65.44
47366;BME280;33105;47.964;7.982;2023-04-10T01:40:00;97149.56;;;4.77;66.12
47366;BME280;33105;47.964;7.982;2023-04-10T01:43:05;97146.00;;;4.38;67.32
47366;BME280;33105;47.964;7.982;2023-04-10T01:46:18;97155.66;;;4.08;68.20
47366;BME280;33105;47.964;7.982;2023-04-10T01:49:23;97152.97;;;4.01;68.69
47366;BME280;33105;47.964;7.982;2023-04-10T01:52:29;97145.25;;;4.12;68.05
47366;BME280;33105;47.964;7.982;2023-04-10T01:55:41;97147.59;;;3.88;68.72
47366;BME280;33105;47.964;7.982;2023-04-10T01:58:45;97144.69;;;3.90;69.29
47366;BME280;33105;47.964;7.982;2023-04-10T02:02:05;97146.56;;;3.89;69.29
47366;BME280;33105;47.964;7.982;2023-04-10T02:12:15;97141.72;;;4.18;67.59
47366;BME280;33105;47.964;7.982;2023-04-10T02:15:20;97141.03;;;4.29;67.85
47366;BME280;33105;47.964;7.982;2023-04-10T02:18:23;97146.16;;;4.50;67.35
47366;BME280;33105;47.964;7.982;2023-04-10T02:21:24;97151.34;;;4.52;67.07
47366;BME280;33105;47.964;7.982;2023-04-10T02:24:27;97163.09;;;4.26;67.41
47366;BME280;33105;47.964;7.982;2023-04-10T02:27:33;97157.59;;;4.52;66.71
47366;BME280;33105;47.964;7.982;2023-04-10T02:30:35;97140.44;;;4.71;66.22
47366;BME280;33105;47.964;7.982;2023-04-10T02:33:36;97133.84;;;4.61;66.08
47366;BME280;33105;47.964;7.982;2023-04-10T02:36:38;97134.59;;;4.74;66.46
47366;BME280;33105;47.964;7.982;2023-04-10T02:39:40;97136.16;;;4.51;66.62
47366;BME280;33105;47.964;7.982;2023-04-10T02:42:42;97141.38;;;4.52;66.59
47366;BME280;33105;47.964;7.982;2023-04-10T02:45:44;97136.16;;;4.57;66.18
47366;BME280;33105;47.964;7.982;2023-04-10T02:48:50;97125.38;;;4.89;64.98
47366;BME280;33105;47.964;7.982;2023-04-10T02:51:52;97123.72;;;4.88;64.70
47366;BME280;33105;47.964;7.982;2023-04-10T02:54:53;97136.16;;;4.57;66.45
47366;BME280;33105;47.964;7.982;2023-04-10T02:57:54;97142.59;;;4.56;66.39
47366;BME280;33105;47.964;7.982;2023-04-10T03:00:56;97141.97;;;4.61;66.67
47366;BME280;33105;47.964;7.982;2023-04-10T03:04:08;97122.84;;;4.94;65.18
47366;BME280;33105;47.964;7.982;2023-04-10T03:07:13;97131.69;;;4.76;65.50
47366;BME280;33105;47.964;7.982;2023-04-10T03:10:14;97134.56;;;4.81;65.46
47366;BME280;33105;47.964;7.982;2023-04-10T03:13:16;97128.75;;;4.77;65.88
47366;BME280;33105;47.964;7.982;2023-04-10T03:16:17;97116.13;;;4.65;66.32
47366;BME280;33105;47.964;7.982;2023-04-10T03:19:18;97112.25;;;4.92;64.76
47366;BME280;33105;47.964;7.982;2023-04-10T03:22:20;97100.09;;;5.01;64.67
47366;BME280;33105;47.964;7.982;2023-04-10T03:25:21;97096.28;;;4.77;65.15
47366;BME280;33105;47.964;7.982;2023-04-10T03:28:23;97092.81;;;4.95;64.62
47366;BME280;33105;47.964;7.982;2023-04-10T03:31:24;97088.16;;;5.09;64.05
47366;BME280;33105;47.964;7.982;2023-04-10T03:34:28;97078.31;;;4.90;64.43
47366;BME280;33105;47.964;7.982;2023-04-10T03:37:30;97079.44;;;5.07;64.12
47366;BME280;33105;47.964;7.982;2023-04-10T03:40:31;97077.72;;;5.12;63.51
47366;BME280;33105;47.964;7.982;2023-04-10T03:43:34;97063.25;;;5.25;62.88
47366;BME280;33105;47.964;7.982;2023-04-10T03:46:37;97067.19;;;5.29;62.53
47366;BME280;33105;47.964;7.982;2023-04-10T03:49:38;97069.22;;;5.09;63.70
47366;BME280;33105;47.964;7.982;2023-04-10T03:52:41;97070.47;;;5.06;63.26
47366;BME280;33105;47.964;7.982;2023-04-10T03:55:47;97070.25;;;5.08;63.89
47366;BME280;33105;47.964;7.982;2023-04-10T03:58:50;97070.09;;;5.03;63.85
47366;BME280;33105;47.964;7.982;2023-04-10T04:01:51;97068.63;;;5.00;63.65
47366;BME280;33105;47.964;7.982;2023-04-10T04:04:53;97070.97;;;4.65;65.24
47366;BME280;33105;47.964;7.982;2023-04-10T04:08:14;97075.47;;;4.40;66.55
47366;BME280;33105;47.964;7.982;2023-04-10T04:11:45;97080.56;;;4.17;67.19
47366;BME280;33105;47.964;7.982;2023-04-10T04:15:15;97087.03;;;4.02;67.46
47366;BME280;33105;47.964;7.982;2023-04-10T04:23:41;97080.81;;;4.02;69.05
47366;BME280;33105;47.964;7.982;2023-04-10T04:26:59;97080.84;;;3.89;69.19
47366;BME280;33105;47.964;7.982;2023-04-10T04:31:14;97091.91;;;3.67;69.79
47366;BME280;33105;47.964;7.982;2023-04-10T04:34:59;97095.03;;;3.58;70.75
47366;BME280;33105;47.964;7.982;2023-04-10T04:43:19;97087.09;;;3.76;70.35
47366;BME280;33105;47.964;7.982;2023-04-10T04:47:07;97083.41;;;3.64;70.22
47366;BME280;33105;47.964;7.982;2023-04-10T04:51:38;97087.34;;;3.61;70.85
47366;BME280;33105;47.964;7.982;2023-04-10T04:55:27;97078.81;;;3.64;70.83
47366;BME280;33105;47.964;7.982;2023-04-10T04:58:49;97084.66;;;3.68;70.73
47366;BME280;33105;47.964;7.982;2023-04-10T05:03:03;97081.72;;;3.69;70.36
47366;BME280;33105;47.964;7.982;2023-04-10T05:06:39;97087.31;;;3.74;70.89
47366;BME280;33105;47.964;7.982;2023-04-10T05:14:29;97087.56;;;3.47;71.39
47366;BME280;33105;47.964;7.982;2023-04-10T05:22:25;97086.94;;;3.71;71.64
47366;BME280;33105;47.964;7.982;2023-04-10T05:26:27;97088.81;;;3.44;72.52
47366;BME280;33105;47.964;7.982;2023-04-10T05:29:46;97096.72;;;3.39;72.91
47366;BME280;33105;47.964;7.982;2023-04-10T05:33:10;97090.28;;;3.33;73.42
47366;BME280;33105;47.964;7.982;2023-04-10T05:36:34;97085.28;;;3.44;72.99
47366;BME280;33105;47.964;7.982;2023-04-10T05:40:03;97100.88;;;3.35;73.34
47366;BME280;33105;47.964;7.982;2023-04-10T05:43:16;97087.16;;;3.36;73.48
47366;BME280;33105;47.964;7.982;2023-04-10T05:46:37;97084.66;;;3.48;73.31
47366;BME280;33105;47.964;7.982;2023-04-10T05:50:01;97084.22;;;3.58;73.12
47366;BME280;33105;47.964;7.982;2023-04-10T05:53:31;97089.00;;;3.69;72.69
47366;BME280;33105;47.964;7.982;2023-04-10T05:56:55;97088.81;;;3.64;72.72
47366;BME280;33105;47.964;7.982;2023-04-10T06:00:15;97085.88;;;3.65;73.18
47366;BME280;33105;47.964;7.982;2023-04-10T06:08:33;97081.06;;;3.87;74.04
47366;BME280;33105;47.964;7.982;2023-04-10T06:11:35;97079.75;;;4.09;73.67
47366;BME280;33105;47.964;7.982;2023-04-10T06:14:37;97081.84;;;4.01;74.88
47366;BME280;33105;47.964;7.982;2023-04-10T06:17:42;97078.22;;;4.27;74.09
47366;BME280;33105;47.964;7.982;2023-04-10T06:20:46;97090.59;;;4.48;74.20
47366;BME280;33105;47.964;7.982;2023-04-10T06:23:47;97081.56;;;4.67;74.57
47366;BME280;33105;47.964;7.982;2023-04-10T06:26:48;97077.91;;;4.86;74.16
47366;BME280;33105;47.964;7.982;2023-04-10T06:29:50;97069.81;;;5.11;74.25
47366;BME280;33105;47.964;7.982;2023-04-10T06:32:55;97073.63;;;5.28;73.54
47366;BME280;33105;47.964;7.982;2023-04-10T06:35:57;97079.06;;;5.28;73.51
47366;BME280;33105;47.964;7.982;2023-04-10T06:38:59;97075.22;;;5.42;73.83
47366;BME280;33105;47.964;7.982;2023-04-10T06:42:00;97076.56;;;5.52;73.85
47366;BME280;33105;47.964;7.982;2023-04-10T06:45:13;97079.03;;;5.78;72.58
47366;BME280;33105;47.964;7.982;2023-04-10T06:48:15;97074.06;;;6.18;72.34
47366;BME280;33105;47.964;7.982;2023-04-10T06:51:16;97072.34;;;6.54;70.36
47366;BME280;33105;47.964;7.982;2023-04-10T06:54:17;97064.84;;;6.97;66.56
47366;BME280;33105;47.964;7.982;2023-04-10T06:57:19;97061.53;;;6.95;65.86
47366;BME280;33105;47.964;7.982;2023-04-10T07:00:20;97054.03;;;7.21;64.07
47366;BME280;33105;47.964;7.982;2023-04-10T07:03:22;97047.56;;;7.33;66.13
47366;BME280;33105;47.964;7.982;2023-04-10T07:06:23;97056.66;;;7.27;68.50
47366;BME280;33105;47.964;7.982;2023-04-10T07:09:24;97050.06;;;7.35;69.47
47366;BME280;33105;47.964;7.982;2023-04-10T07:12:28;97049.47;;;7.56;70.22
47366;BME280;33105;47.964;7.982;2023-04-10T07:15:29;97059.03;;;7.70;69.93
47366;BME280;33105;47.964;7.982;2023-04-10T07:18:31;97052.44;;;7.90;65.65
47366;BME280;33105;47.964;7.982;2023-04-10T07:21:32;97057.03;;;8.12;62.60
47366;BME280;33105;47.964;7.982;2023-04-10T07:24:33;97042.44;;;8.18;60.41
47366;BME280;33105;47.964;7.982;2023-04-10T07:27:34;97042.44;;;8.70;56.62
47366;BME280;33105;47.964;7.982;2023-04-10T07:30:36;97057.81;;;8.25;55.85
47366;BME280;33105;47.964;7.982;2023-04-10T07:33:37;97053.81;;;8.39;58.30
47366;BME280;33105;47.964;7.982;2023-04-10T07:36:38;97045.25;;;8.75;56.50
47366;BME280;33105;47.964;7.982;2023-04-10T07:39:39;97044.97;;;8.89;58.91
47366;BME280;33105;47.964;7.982;2023-04-10T07:42:41;97052.56;;;8.86;60.35
47366;BME280;33105;47.964;7.982;2023-04-10T07:45:42;97051.53;;;9.04;59.92
47366;BME280;33105;47.964;7.982;2023-04-10T07:48:43;97040.84;;;8.86;60.33
47366;BME280;33105;47.964;7.982;2023-04-10T07:51:44;97048.84;;;8.93;59.68
47366;BME280;33105;47.964;7.982;2023-04-10T07:54:46;97054.00;;;9.06;58.12
47366;BME280;33105;47.964;7.982;2023-04-10T07:57:47;97063.41;;;8.98;58.29
47366;BME280;33105;47.964;7.982;2023-04-10T08:00:48;97052.97;;;9.40;59.62
47366;BME280;33105;47.964;7.982;2023-04-10T08:03:49;97053.66;;;9.64;59.60
47366;BME280;33105;47.964;7.982;2023-04-10T08:06:51;97059.41;;;9.68;58.16
47366;BME280;33105;47.964;7.982;2023-04-10T08:09:53;97048.34;;;9.58;58.46
47366;BME280;33105;47.964;7.982;2023-04-10T08:12:54;97041.91;;;9.64;57.59
47366;BME280;33105;47.964;7.982;2023-04-10T08:15:55;97048.38;;;9.96;57.44
47366;BME280;33105;47.964;7.982;2023-04-10T08:18:58;97033.38;;;10.15;56.87
47366;BME280;33105;47.964;7.982;2023-04-10T08:22:00;97033.16;;;10.00;57.02
47366;BME280;33105;47.964;7.982;2023-04-10T08:25:01;97037.34;;;10.25;57.80
47366;BME280;33105;47.964;7.982;2023-04-10T08:28:03;97033.94;;;10.34;57.20
47366;BME280;33105;47.964;7.982;2023-04-10T08:31:05;97031.38;;;10.28;57.71
47366;BME280;33105;47.964;7.982;2023-04-10T08:34:06;97031.25;;;10.61;57.43
47366;BME280;33105;47.964;7.982;2023-04-10T08:37:08;97030.50;;;10.93;56.32
47366;BME280;33105;47.964;7.982;2023-04-10T08:40:12;97027.75;;;10.93;56.09
47366;BME280;33105;47.964;7.982;2023-04-10T08:43:13;97034.69;;;11.27;55.85
47366;BME280;33105;47.964;7.982;2023-04-10T08:46:14;97030.97;;;11.38;54.69
47366;BME280;33105;47.964;7.982;2023-04-10T08:49:23;97030.25;;;11.21;53.16
47366;BME280;33105;47.964;7.982;2023-04-10T08:52:24;97032.19;;;11.25;53.71
47366;BME280;33105;47.964;7.982;2023-04-10T08:55:26;97026.97;;;11.83;52.20
47366;BME280;33105;47.964;7.982;2023-04-10T08:58:28;97021.00;;;11.59;52.36
47366;BME280;33105;47.964;7.982;2023-04-10T09:01:29;97016.84;;;11.51;52.03
47366;BME280;33105;47.964;7.982;2023-04-10T09:04:31;97019.84;;;11.82;52.07
47366;BME280;33105;47.964;7.982;2023-04-10T09:07:33;97024.47;;;12.23;52.16
47366;BME280;33105;47.964;7.982;2023-04-10T09:10:34;97017.22;;;12.02;52.46
47366;BME280;33105;47.964;7.982;2023-04-10T09:13:38;97017.69;;;12.41;51.76
47366;BME280;33105;47.964;7.982;2023-04-10T09:16:39;97003.56;;;12.75;50.68
47366;BME280;33105;47.964;7.982;2023-04-10T09:19:42;96997.34;;;13.10;49.31
47366;BME280;33105;47.964;7.982;2023-04-10T09:22:43;96992.47;;;13.52;47.87
47366;BME280;33105;47.964;7.982;2023-04-10T09:25:45;96991.84;;;13.00;48.52
47366;BME280;33105;47.964;7.982;2023-04-10T09:29:03;96995.03;;;12.61;48.57
47366;BME280;33105;47.964;7.982;2023-04-10T09:32:05;96990.41;;;12.72;47.80
47366;BME280;33105;47.964;7.982;2023-04-10T09:35:07;96984.63;;;12.68;49.22
47366;BME280;33105;47.964;7.982;2023-04-10T09:38:17;96975.63;;;12.93;49.89
47366;BME280;33105;47.964;7.982;2023-04-10T09:41:18;96973.75;;;13.09;48.64
47366;BME280;33105;47.964;7.982;2023-04-10T09:44:35;96970.78;;;13.20;47.89
47366;BME280;33105;47.964;7.982;2023-04-10T09:47:37;96969.41;;;13.18;47.32
47366;BME280;33105;47.964;7.982;2023-04-10T09:50:38;96974.59;;;13.09;47.74
47366;BME280;33105;47.964;7.982;2023-04-10T09:53:49;96962.28;;;13.47;46.36
47366;BME280;33105;47.964;7.982;2023-04-10T09:56:51;96970.50;;;13.37;47.48
47366;BME280;33105;47.964;7.982;2023-04-10T09:59:56;96962.81;;;13.49;46.29
47366;BME280;33105;47.964;7.982;2023-04-10T10:02:59;96957.78;;;14.07;47.32
47366;BME280;33105;47.964;7.982;2023-04-10T10:06:02;96950.22;;;14.48;44.69
47366;BME280;33105;47.964;7.982;2023-04-10T10:09:04;96942.81;;;14.39;45.74
47366;BME280;33105;47.964;7.982;2023-04-10T10:12:07;96943.69;;;14.29;44.50
47366;BME280;33105;47.964;7.982;2023-04-10T10:21:48;96926.03;;;14.40;43.02
47366;BME280;33105;47.964;7.982;2023-04-10T10:24:52;96924.03;;;14.61;45.80
47366;BME280;33105;47.964;7.982;2023-04-10T10:27:59;96926.75;;;14.66;42.94
47366;BME280;33105;47.964;7.982;2023-04-10T10:31:02;96926.31;;;14.93;45.18
47366;BME280;33105;47.964;7.982;2023-04-10T10:34:04;96927.03;;;15.09;41.87
47366;BME280;33105;47.964;7.982;2023-04-10T10:37:07;96927.13;;;14.93;41.88
47366;BME280;33105;47.964;7.982;2023-04-10T10:40:39;96924.47;;;15.56;42.63
47366;BME280;33105;47.964;7.982;2023-04-10T10:43:51;96921.81;;;15.41;40.99
47366;BME280;33105;47.964;7.982;2023-04-10T10:47:28;96914.72;;;15.01;38.87
47366;BME280;33105;47.964;7.982;2023-04-10T10:50:49;96912.94;;;15.15;41.11
47366;BME280;33105;47.964;7.982;2023-04-10T10:53:51;96911.63;;;15.42;41.70
47366;BME280;33105;47.964;7.982;2023-04-10T10:56:52;96909.59;;;15.57;37.60
47366;BME280;33105;47.964;7.982;2023-04-10T10:59:53;96914.28;;;15.57;40.67
47366;BME280;33105;47.964;7.982;2023-04-10T11:06:48;96900.94;;;15.93;40.29
47366;BME280;33105;47.964;7.982;2023-04-10T11:09:52;96891.91;;;15.87;41.39
47366;BME280;33105;47.964;7.982;2023-04-10T11:13:15;96894.97;;;16.52;43.99
47366;BME280;33105;47.964;7.982;2023-04-10T11:16:19;96894.94;;;16.10;41.27
47366;BME280;33105;47.964;7.982;2023-04-10T11:19:21;96895.84;;;16.05;43.68
47366;BME280;33105;47.964;7.982;2023-04-10T11:22:25;96894.72;;;16.30;42.67
47366;BME280;33105;47.964;7.982;2023-04-10T11:28:47;96896.59;;;15.87;43.43
47366;BME280;33105;47.964;7.982;2023-04-10T11:31:59;96902.53;;;15.75;44.59
47366;BME280;33105;47.964;7.982;2023-04-10T11:35:01;96889.81;;;16.03;46.12
47366;BME280;33105;47.964;7.982;2023-04-10T11:38:10;96888.03;;;16.12;43.94
47366;BME280;33105;47.964;7.982;2023-04-10T11:41:11;96892.16;;;15.91;43.11
47366;BME280;33105;47.964;7.982;2023-04-10T11:44:26;96882.53;;;16.12;44.71
47366;BME280;33105;47.964;7.982;2023-04-10T11:47:28;96883.25;;;15.99;43.84
47366;BME280;33105;47.964;7.982;2023-04-10T11:50:29;96879.03;;;15.83;43.45
47366;BME280;33105;47.964;7.982;2023-04-10T11:53:32;96883.25;;;15.99;43.93
47366;BME280;33105;47.964;7.982;2023-04-10T11:56:33;96900.84;;;16.03;45.08
47366;BME280;33105;47.964;7.982;2023-04-10T11:59:35;96897.06;;;15.94;44.48
47366;BME280;33105;47.964;7.982;2023-04-10T12:02:49;96893.38;;;16.27;44.66
47366;BME280;33105;47.964;7.982;2023-04-10T12:05:51;96895.38;;;16.22;45.61
47366;BME280;33105;47.964;7.982;2023-04-10T12:08:53;96894.22;;;16.47;44.52
47366;BME280;33105;47.964;7.982;2023-04-10T12:11:56;96889.75;;;16.08;44.34
47366;BME280;33105;47.964;7.982;2023-04-10T12:14:59;96883.53;;;16.21;44.05
47366;BME280;33105;47.964;7.982;2023-04-10T12:18:01;96873.69;;;16.34;43.76
47366;BME280;33105;47.964;7.982;2023-04-10T12:21:03;96867.81;;;16.22;44.67
47366;BME280;33105;47.964;7.982;2023-04-10T12:24:05;96864.59;;;16.33;43.72
47366;BME280;33105;47.964;7.982;2023-04-10T12:27:08;96868.19;;;16.34;45.20
47366;BME280;33105;47.964;7.982;2023-04-10T12:30:09;96869.47;;;16.42;44.94
47366;BME280;33105;47.964;7.982;2023-04-10T12:33:11;96864.78;;;16.42;44.57
47366;BME280;33105;47.964;7.982;2023-04-10T12:36:25;96859.03;;;16.39;45.20
47366;BME280;33105;47.964;7.982;2023-04-10T12:39:29;96855.59;;;16.28;43.20
47366;BME280;33105;47.964;7.982;2023-04-10T12:42:38;96862.53;;;16.44;45.52
47366;BME280;33105;47.964;7.982;2023-04-10T12:45:41;96863.75;;;16.14;43.31
47366;BME280;33105;47.964;7.982;2023-04-10T12:48:45;96861.59;;;16.11;44.59
47366;BME280;33105;47.964;7.982;2023-04-10T12:51:48;96862.03;;;15.99;46.11
47366;BME280;33105;47.964;7.982;2023-04-10T12:54:50;96856.16;;;16.06;44.46
47366;BME280;33105;47.964;7.982;2023-04-10T12:57:51;96854.66;;;16.14;46.43
47366;BME280;33105;47.964;7.982;2023-04-10T13:00:54;96863.91;;;16.04;43.87
47366;BME280;33105;47.964;7.982;2023-04-10T13:03:58;96854.25;;;16.25;44.58
47366;BME280;33105;47.964;7.982;2023-04-10T13:06:59;96855.53;;;16.33;43.91
47366;BME280;33105;47.964;7.982;2023-04-10T13:10:01;96850.91;;;16.47;46.33
47366;BME280;33105;47.964;7.982;2023-04-10T13:13:03;96840.63;;;16.53;43.98
47366;BME280;33105;47.964;7.982;2023-04-10T13:16:04;96842.47;;;16.39;43.89
47366;BME280;33105;47.964;7.982;2023-04-10T13:19:06;96841.06;;;16.41;43.31
47366;BME280;33105;47.964;7.982;2023-04-10T13:22:07;96835.72;;;16.87;43.09
47366;BME280;33105;47.964;7.982;2023-04-10T13:25:08;96834.38;;;16.85;43.16
47366;BME280;33105;47.964;7.982;2023-04-10T13:28:09;96832.53;;;16.80;43.58
47366;BME280;33105;47.964;7.982;2023-04-10T13:31:15;96830.94;;;17.25;42.77
47366;BME280;33105;47.964;7.982;2023-04-10T13:34:16;96823.19;;;16.95;42.41
47366;BME280;33105;47.964;7.982;2023-04-10T13:37:18;96824.00;;;16.95;42.50
47366;BME280;33105;47.964;7.982;2023-04-10T13:40:20;96812.44;;;17.26;45.40
47366;BME280;33105;47.964;7.982;2023-04-10T13:43:21;96810.47;;;16.80;43.33
47366;BME280;33105;47.964;7.982;2023-04-10T13:46:22;96807.38;;;17.14;43.41
47366;BME280;33105;47.964;7.982;2023-04-10T13:49:23;96798.06;;;17.10;41.83
47366;BME280;33105;47.964;7.982;2023-04-10T13:52:25;96798.59;;;17.12;42.07
47366;BME280;33105;47.964;7.982;2023-04-10T13:55:26;96788.50;;;17.21;40.91
47366;BME280;33105;47.964;7.982;2023-04-10T13:58:27;96787.50;;;17.31;41.35
47366;BME280;33105;47.964;7.982;2023-04-10T14:01:31;96781.34;;;17.34;39.82
47366;BME280;33105;47.964;7.982;2023-04-10T14:04:33;96782.66;;;17.69;36.85
47366;BME280;33105;47.964;7.982;2023-04-10T14:07:34;96779.56;;;17.57;37.47
47366;BME280;33105;47.964;7.982;2023-04-10T14:10:36;96773.38;;;17.32;36.60
47366;BME280;33105;47.964;7.982;2023-04-10T14:13:39;96771.25;;;17.29;34.74
47366;BME280;33105;47.964;7.982;2023-04-10T14:16:40;96778.66;;;17.02;32.76
47366;BME280;33105;47.964;7.982;2023-04-10T14:19:41;96764.75;;;17.07;33.30
47366;BME280;33105;47.964;7.982;2023-04-10T14:22:43;96763.59;;;17.08;34.53
47366;BME280;33105;47.964;7.982;2023-04-10T14:25:44;96764.56;;;17.17;35.87
47366;BME280;33105;47.964;7.982;2023-04-10T14:28:46;96761.72;;;17.22;34.17
47366;BME280;33105;47.964;7.982;2023-04-10T14:31:47;96761.66;;;17.08;32.70
47366;BME280;33105;47.964;7.982;2023-04-10T14:34:48;96763.28;;;16.95;34.96
47366;BME280;33105;47.964;7.982;2023-04-10T14:37:49;96760.88;;;16.75;36.21
47366;BME280;33105;47.964;7.982;2023-04-10T14:40:50;96762.34;;;16.86;35.40
47366;BME280;33105;47.964;7.982;2023-04-10T14:43:53;96768.00;;;16.95;36.89
47366;BME280;33105;47.964;7.982;2023-04-10T14:46:54;96760.00;;;16.93;38.59
47366;BME280;33105;47.964;7.982;2023-04-10T14:49:56;96756.06;;;16.99;38.85
47366;BME280;33105;47.964;7.982;2023-04-10T14:52:58;96750.63;;;17.08;39.91
47366;BME280;33105;47.964;7.982;2023-04-10T14:56:09;96752.25;;;16.95;41.65
47366;BME280;33105;47.964;7.982;2023-04-10T14:59:11;96755.28;;;16.80;41.78
47366;BME280;33105;47.964;7.982;2023-04-10T15:02:12;96746.22;;;16.93;42.06
47366;BME280;33105;47.964;7.982;2023-04-10T15:05:13;96739.56;;;16.94;42.34
47366;BME280;33105;47.964;7.982;2023-04-10T15:08:14;96732.75;;;17.06;40.35
47366;BME280;33105;47.964;7.982;2023-04-10T15:11:15;96736.44;;;16.69;42.04
47366;BME280;33105;47.964;7.982;2023-04-10T15:14:17;96725.75;;;16.81;43.29
47366;BME280;33105;47.964;7.982;2023-04-10T15:17:21;96720.50;;;17.25;42.47
47366;BME280;33105;47.964;7.982;2023-04-10T15:20:23;96723.75;;;17.14;43.65
47366;BME280;33105;47.964;7.982;2023-04-10T15:23:24;96718.97;;;17.33;40.92
47366;BME280;33105;47.964;7.982;2023-04-10T15:26:26;96715.84;;;16.93;43.14
47366;BME280;33105;47.964;7.982;2023-04-10T15:29:27;96712.06;;;16.89;43.14
47366;BME280;33105;47.964;7.982;2023-04-10T15:32:29;96703.22;;;17.06;42.76
47366;BME280;33105;47.964;7.982;2023-04-10T15:35:30;96700.84;;;16.99;43.79
47366;BME280;33105;47.964;7.982;2023-04-10T15:38:36;96697.22;;;16.72;42.71
47366;BME280;33105;47.964;7.982;2023-04-10T15:41:37;96692.03;;;16.51;44.57
47366;BME280;33105;47.964;7.982;2023-04-10T15:44:39;96703.94;;;16.47;44.37
47366;BME280;33105;47.964;7.982;2023-04-10T15:47:40;96693.25;;;16.59;43.24
47366;BME280;33105;47.964;7.982;2023-04-10T15:50:41;96692.13;;;16.27;43.96
47366;BME280;33105;47.964;7.982;2023-04-10T15:53:43;96693.88;;;16.37;44.74
47366;BME280;33105;47.964;7.982;2023-04-10T15:56:44;96694.59;;;16.29;45.22
47366;BME280;33105;47.964;7.982;2023-04-10T15:59:45;96693.78;;;16.28;44.86
47366;BME280;33105;47.964;7.982;2023-04-10T16:02:46;96691.56;;;16.44;45.04
47366;BME280;33105;47.964;7.982;2023-04-10T16:05:48;96694.59;;;16.29;45.94
47366;BME280;33105;47.964;7.982;2023-04-10T16:08:50;96689.13;;;16.43;45.42
47366;BME280;33105;47.964;7.982;2023-04-10T16:11:53;96678.97;;;16.57;46.46
47366;BME280;33105;47.964;7.982;2023-04-10T16:14:55;96679.72;;;16.44;45.59
47366;BME280;33105;47.964;7.982;2023-04-10T16:17:56;96675.50;;;16.32;46.08
47366;BME280;33105;47.964;7.982;2023-04-10T16:20:58;96676.22;;;16.38;46.41
47366;BME280;33105;47.964;7.982;2023-04-10T16:23:59;96670.59;;;16.29;47.41
47366;BME280;33105;47.964;7.982;2023-04-10T16:27:00;96673.97;;;16.26;48.03
47366;BME280;33105;47.964;7.982;2023-04-10T16:30:02;96680.13;;;16.18;45.67
47366;BME280;33105;47.964;7.982;2023-04-10T16:33:05;96684.84;;;15.99;45.98
47366;BME280;33105;47.964;7.982;2023-04-10T16:36:07;96687.59;;;15.99;46.75
47366;BME280;33105;47.964;7.982;2023-04-10T16:39:09;96681.22;;;16.04;46.43
47366;BME280;33105;47.964;7.982;2023-04-10T16:42:10;96678.09;;;16.43;44.99
47366;BME280;33105;47.964;7.982;2023-04-10T16:45:11;96672.88;;;16.41;45.45
47366;BME280;33105;47.964;7.982;2023-04-10T16:48:12;96672.38;;;16.20;47.80
47366;BME280;33105;47.964;7.982;2023-04-10T16:51:15;96673.16;;;16.07;47.37
47366;BME280;33105;47.964;7.982;2023-04-10T16:54:16;96675.00;;;15.93;48.50
47366;BME280;33105;47.964;7.982;2023-04-10T16:57:17;96673.31;;;15.78;47.95
47366;BME280;33105;47.964;7.982;2023-04-10T17:00:18;96681.75;;;15.63;47.72
47366;BME280;33105;47.964;7.982;2023-04-10T17:03:20;96683.22;;;15.79;48.12
47366;BME280;33105;47.964;7.982;2023-04-10T17:06:21;96690.78;;;15.69;48.02
47366;BME280;33105;47.964;7.982;2023-04-10T17:09:22;96678.28;;;15.57;48.61
47366;BME280;33105;47.964;7.982;2023-04-10T17:12:24;96666.28;;;15.67;49.43
47366;BME280;33105;47.964;7.982;2023-04-10T17:15:25;96658.75;;;15.54;50.20
47366;BME280;33105;47.964;7.982;2023-04-10T17:18:27;96663.25;;;15.45;50.58
47366;BME280;33105;47.964;7.982;2023-04-10T17:21:32;96665.19;;;15.44;51.12
47366;BME280;33105;47.964;7.982;2023-04-10T17:24:33;96659.75;;;15.39;49.99
47366;BME280;33105;47.964;7.982;2023-04-10T17:27:35;96664.94;;;15.22;49.60